Pombo Tres — EAMR — position and weather

sailwx.info

Track history (hours):
 
Tides and Currents Weather Stations Pressure Air Temp Water Temp Dewpoint Dewpoint Depression Visibility Wind Speed Wind Dir Waves Ship Positions

Pombo Tres

Last reported at 2017-Mar-20 23:16 UTC. Time now 2017-Mar-23 21:58 UTC.
Position N 43°52' W 007°40'.

Length 31 m; draft 4 m.

Type: Fishing. MMSI: 224013090.

Date/timePositionNaut miles runAvg speedWind from/ knotsBaromVisibWave heightAir tempDewpointWater temp
2017-Mar-20 23:16N 43°52' W 007°40'1 0.9
2017-Mar-20 22:30N 43°51' W 007°40'4 4.2
2017-Mar-20 21:33N 43°48' W 007°37'7 7.1
2017-Mar-20 20:33N 43°41' W 007°36'4 3.7
2017-Mar-20 19:33N 43°44' W 007°35'5 0.3
2017-Mar-20 03:33N 43°49' W 007°38'8 8.2
2017-Mar-20 02:33N 43°41' W 007°36'0 0.0
2017-Mar-20 01:33N 43°41' W 007°36'  
2017-Mar-17 15:33N 43°41' W 007°36'0 0.2
2017-Mar-17 14:33N 43°41' W 007°36'8 7.6
2017-Mar-17 13:33N 43°48' W 007°36'  
Track history (hours):
 
Tides and Currents Weather Stations Pressure Air Temp Water Temp Dewpoint Dewpoint Depression Visibility Wind Speed Wind Dir Waves Ship Positions

Pombo Tres

Last reported at 2017-Mar-20 23:16 UTC. Time now 2017-Mar-23 21:58 UTC.
Position N 43°52' W 007°40'.

Length 31 m; draft 4 m.

Type: Fishing. MMSI: 224013090.

Date/timePositionNaut miles runAvg speedWind from/ knotsBaromVisibWave heightAir tempDewpointWater temp
2017-Mar-20 23:16N 43°52' W 007°40'1 0.9
2017-Mar-20 22:30N 43°51' W 007°40'4 4.2
2017-Mar-20 21:33N 43°48' W 007°37'7 7.1
2017-Mar-20 20:33N 43°41' W 007°36'4 3.7
2017-Mar-20 19:33N 43°44' W 007°35'5 0.3
2017-Mar-20 03:33N 43°49' W 007°38'8 8.2
2017-Mar-20 02:33N 43°41' W 007°36'0 0.0
2017-Mar-20 01:33N 43°41' W 007°36'  
2017-Mar-17 15:33N 43°41' W 007°36'0 0.2
2017-Mar-17 14:33N 43°41' W 007°36'8 7.6
2017-Mar-17 13:33N 43°48' W 007°36'  

Dump ship's entire track history